sensor_id;sensor_type;location;lat;lon;timestamp;temperature;humidity
27890;DHT22;15238;49.082;9.102;2023-02-28T00:01:47;-1.30;99.90
27890;DHT22;15238;49.082;9.102;2023-02-28T00:03:48;-1.30;99.90
27890;DHT22;15238;49.082;9.102;2023-02-28T00:05:48;-1.40;99.90
27890;DHT22;15238;49.082;9.102;2023-02-28T00:07:49;-1.40;99.90
27890;DHT22;15238;49.082;9.102;2023-02-28T00:09:50;-1.40;99.90
27890;DHT22;15238;49.082;9.102;2023-02-28T00:11:50;-1.40;99.90
27890;DHT22;15238;49.082;9.102;2023-02-28T00:13:51;-1.40;99.90
27890;DHT22;15238;49.082;9.102;2023-02-28T00:16:02;-1.50;99.90
27890;DHT22;15238;49.082;9.102;2023-02-28T00:18:03;-1.50;99.90
27890;DHT22;15238;49.082;9.102;2023-02-28T00:20:06;-1.40;99.90
27890;DHT22;15238;49.082;9.102;2023-02-28T00:22:08;-1.40;99.90
27890;DHT22;15238;49.082;9.102;2023-02-28T00:24:09;-1.40;99.90
27890;DHT22;15238;49.082;9.102;2023-02-28T00:26:09;-1.40;99.90
27890;DHT22;15238;49.082;9.102;2023-02-28T00:28:10;-1.40;99.90
27890;DHT22;15238;49.082;9.102;2023-02-28T00:30:18;-1.50;99.90
27890;DHT22;15238;49.082;9.102;2023-02-28T00:32:19;-1.40;99.90
27890;DHT22;15238;49.082;9.102;2023-02-28T00:34:19;-1.40;99.90
27890;DHT22;15238;49.082;9.102;2023-02-28T00:36:20;-1.50;99.90
27890;DHT22;15238;49.082;9.102;2023-02-28T00:38:20;-1.50;99.90
27890;DHT22;15238;49.082;9.102;2023-02-28T00:40:21;-1.50;99.90
27890;DHT22;15238;49.082;9.102;2023-02-28T00:42:22;-1.50;99.90
27890;DHT22;15238;49.082;9.102;2023-02-28T00:44:22;-1.50;99.90
27890;DHT22;15238;49.082;9.102;2023-02-28T00:46:23;-1.40;99.90
27890;DHT22;15238;49.082;9.102;2023-02-28T00:48:23;-1.40;99.90
27890;DHT22;15238;49.082;9.102;2023-02-28T00:50:24;-1.40;99.90
27890;DHT22;15238;49.082;9.102;2023-02-28T00:52:24;-1.40;99.90
27890;DHT22;15238;49.082;9.102;2023-02-28T00:54:25;-1.50;99.90
27890;DHT22;15238;49.082;9.102;2023-02-28T00:56:25;-1.40;99.90
27890;DHT22;15238;49.082;9.102;2023-02-28T00:58:26;-1.50;99.90
27890;DHT22;15238;49.082;9.102;2023-02-28T01:00:27;-1.50;99.90
27890;DHT22;15238;49.082;9.102;2023-02-28T01:02:27;-1.50;99.90
27890;DHT22;15238;49.082;9.102;2023-02-28T01:04:28;-1.50;99.90
27890;DHT22;15238;49.082;9.102;2023-02-28T01:06:28;-1.60;99.90
27890;DHT22;15238;49.082;9.102;2023-02-28T01:08:29;-1.60;99.90
27890;DHT22;15238;49.082;9.102;2023-02-28T01:10:29;-1.60;99.90
27890;DHT22;15238;49.082;9.102;2023-02-28T01:12:31;-1.60;99.90
27890;DHT22;15238;49.082;9.102;2023-02-28T01:14:32;-1.60;99.90
27890;DHT22;15238;49.082;9.102;2023-02-28T01:16:32;-1.70;99.90
27890;DHT22;15238;49.082;9.102;2023-02-28T01:18:33;-1.60;99.90
27890;DHT22;15238;49.082;9.102;2023-02-28T01:20:36;-1.60;99.90
27890;DHT22;15238;49.082;9.102;2023-02-28T01:22:37;-1.60;99.90
27890;DHT22;15238;49.082;9.102;2023-02-28T01:24:38;-1.60;99.90
27890;DHT22;15238;49.082;9.102;2023-02-28T01:26:38;-1.60;99.90
27890;DHT22;15238;49.082;9.102;2023-02-28T01:28:39;-1.60;99.90
27890;DHT22;15238;49.082;9.102;2023-02-28T01:30:39;-1.60;99.90
27890;DHT22;15238;49.082;9.102;2023-02-28T01:32:40;-1.60;99.90
27890;DHT22;15238;49.082;9.102;2023-02-28T01:34:40;-1.60;99.90
27890;DHT22;15238;49.082;9.102;2023-02-28T01:36:41;-1.60;99.90
27890;DHT22;15238;49.082;9.102;2023-02-28T01:38:42;-1.60;99.90
27890;DHT22;15238;49.082;9.102;2023-02-28T01:40:42;-1.60;99.90
27890;DHT22;15238;49.082;9.102;2023-02-28T01:42:43;-1.60;99.90
27890;DHT22;15238;49.082;9.102;2023-02-28T01:45:00;-1.50;99.90
27890;DHT22;15238;49.082;9.102;2023-02-28T01:47:01;-1.50;99.90
27890;DHT22;15238;49.082;9.102;2023-02-28T01:49:07;-1.50;99.90
27890;DHT22;15238;49.082;9.102;2023-02-28T01:51:13;-1.50;99.90
27890;DHT22;15238;49.082;9.102;2023-02-28T01:53:19;-1.40;99.90
27890;DHT22;15238;49.082;9.102;2023-02-28T01:55:22;-1.50;99.90
27890;DHT22;15238;49.082;9.102;2023-02-28T01:57:28;-1.50;99.90
27890;DHT22;15238;49.082;9.102;2023-02-28T01:59:38;-1.50;99.90
27890;DHT22;15238;49.082;9.102;2023-02-28T02:01:46;-1.50;99.90
27890;DHT22;15238;49.082;9.102;2023-02-28T02:03:58;-1.50;99.90
27890;DHT22;15238;49.082;9.102;2023-02-28T02:05:59;-1.60;99.90
27890;DHT22;15238;49.082;9.102;2023-02-28T02:08:24;-1.70;99.90
27890;DHT22;15238;49.082;9.102;2023-02-28T02:10:44;-1.60;99.90
27890;DHT22;15238;49.082;9.102;2023-02-28T02:15:16;-1.70;99.90
27890;DHT22;15238;49.082;9.102;2023-02-28T02:17:31;-1.80;99.90
27890;DHT22;15238;49.082;9.102;2023-02-28T02:21:55;-1.80;99.90
27890;DHT22;15238;49.082;9.102;2023-02-28T02:24:14;-1.80;99.90
27890;DHT22;15238;49.082;9.102;2023-02-28T02:29:01;-1.80;99.90
27890;DHT22;15238;49.082;9.102;2023-02-28T02:36:09;-1.90;99.90
27890;DHT22;15238;49.082;9.102;2023-02-28T02:38:32;-1.80;99.90
27890;DHT22;15238;49.082;9.102;2023-02-28T02:40:42;-1.90;99.90
27890;DHT22;15238;49.082;9.102;2023-02-28T02:42:45;-1.80;99.90
27890;DHT22;15238;49.082;9.102;2023-02-28T02:45:12;-1.90;99.90
27890;DHT22;15238;49.082;9.102;2023-02-28T02:47:18;-1.90;99.90
27890;DHT22;15238;49.082;9.102;2023-02-28T02:49:24;-1.90;99.90
27890;DHT22;15238;49.082;9.102;2023-02-28T02:51:25;-1.80;99.90
27890;DHT22;15238;49.082;9.102;2023-02-28T02:53:32;-1.90;99.90
27890;DHT22;15238;49.082;9.102;2023-02-28T02:55:38;-1.90;99.90
27890;DHT22;15238;49.082;9.102;2023-02-28T02:58:05;-1.80;99.90
27890;DHT22;15238;49.082;9.102;2023-02-28T03:00:09;-1.90;99.90
27890;DHT22;15238;49.082;9.102;2023-02-28T03:02:12;-1.80;99.90
27890;DHT22;15238;49.082;9.102;2023-02-28T03:04:18;-1.80;99.90
27890;DHT22;15238;49.082;9.102;2023-02-28T03:06:19;-1.70;99.90
27890;DHT22;15238;49.082;9.102;2023-02-28T03:08:19;-1.70;99.90
27890;DHT22;15238;49.082;9.102;2023-02-28T03:10:38;-1.60;99.90
27890;DHT22;15238;49.082;9.102;2023-02-28T03:12:42;-1.60;99.90
27890;DHT22;15238;49.082;9.102;2023-02-28T03:17:00;-1.50;99.90
27890;DHT22;15238;49.082;9.102;2023-02-28T03:21:40;-1.40;99.90
27890;DHT22;15238;49.082;9.102;2023-02-28T03:24:10;-1.30;99.90
27890;DHT22;15238;49.082;9.102;2023-02-28T03:26:19;-1.30;99.90
27890;DHT22;15238;49.082;9.102;2023-02-28T03:30:54;-1.30;99.90
27890;DHT22;15238;49.082;9.102;2023-02-28T03:33:10;-1.30;99.90
27890;DHT22;15238;49.082;9.102;2023-02-28T03:35:22;-1.30;99.90
27890;DHT22;15238;49.082;9.102;2023-02-28T03:37:24;-1.30;99.90
27890;DHT22;15238;49.082;9.102;2023-02-28T03:39:27;-1.30;99.90
27890;DHT22;15238;49.082;9.102;2023-02-28T03:41:37;-1.30;99.90
27890;DHT22;15238;49.082;9.102;2023-02-28T03:43:41;-1.30;99.90
27890;DHT22;15238;49.082;9.102;2023-02-28T03:45:43;-1.30;99.90
27890;DHT22;15238;49.082;9.102;2023-02-28T03:47:54;-1.40;99.90
27890;DHT22;15238;49.082;9.102;2023-02-28T03:52:17;-1.30;99.90
27890;DHT22;15238;49.082;9.102;2023-02-28T03:54:25;-1.30;99.90
27890;DHT22;15238;49.082;9.102;2023-02-28T03:56:32;-1.30;99.90
27890;DHT22;15238;49.082;9.102;2023-02-28T04:00:50;-1.30;99.90
27890;DHT22;15238;49.082;9.102;2023-02-28T04:02:53;-1.40;99.90
27890;DHT22;15238;49.082;9.102;2023-02-28T04:04:54;-1.30;99.90
27890;DHT22;15238;49.082;9.102;2023-02-28T04:07:04;-1.30;99.90
27890;DHT22;15238;49.082;9.102;2023-02-28T04:09:07;-1.30;99.90
27890;DHT22;15238;49.082;9.102;2023-02-28T04:11:35;-1.30;99.90
27890;DHT22;15238;49.082;9.102;2023-02-28T04:13:36;-1.30;99.90
27890;DHT22;15238;49.082;9.102;2023-02-28T04:15:36;-1.30;99.90
27890;DHT22;15238;49.082;9.102;2023-02-28T04:17:37;-1.30;99.90
27890;DHT22;15238;49.082;9.102;2023-02-28T04:19:38;-1.30;99.90
27890;DHT22;15238;49.082;9.102;2023-02-28T04:21:41;-1.30;99.90
27890;DHT22;15238;49.082;9.102;2023-02-28T04:23:42;-1.20;99.90
27890;DHT22;15238;49.082;9.102;2023-02-28T04:25:43;-1.30;99.90
27890;DHT22;15238;49.082;9.102;2023-02-28T04:27:43;-1.30;99.90
27890;DHT22;15238;49.082;9.102;2023-02-28T04:29:44;-1.30;99.90
27890;DHT22;15238;49.082;9.102;2023-02-28T04:31:45;-1.20;99.90
27890;DHT22;15238;49.082;9.102;2023-02-28T04:33:46;-1.20;99.90
27890;DHT22;15238;49.082;9.102;2023-02-28T04:35:46;-1.20;99.90
27890;DHT22;15238;49.082;9.102;2023-02-28T04:37:47;-1.20;99.90
27890;DHT22;15238;49.082;9.102;2023-02-28T04:39:47;-1.20;99.90
27890;DHT22;15238;49.082;9.102;2023-02-28T04:41:48;-1.20;99.90
27890;DHT22;15238;49.082;9.102;2023-02-28T04:43:49;-1.20;99.90
27890;DHT22;15238;49.082;9.102;2023-02-28T04:45:49;-1.20;99.90
27890;DHT22;15238;49.082;9.102;2023-02-28T04:47:50;-1.20;99.90
27890;DHT22;15238;49.082;9.102;2023-02-28T04:49:50;-1.20;99.90
27890;DHT22;15238;49.082;9.102;2023-02-28T04:51:51;-1.20;99.90
27890;DHT22;15238;49.082;9.102;2023-02-28T04:53:52;-1.20;99.90
27890;DHT22;15238;49.082;9.102;2023-02-28T04:55:52;-1.20;99.90
27890;DHT22;15238;49.082;9.102;2023-02-28T04:57:53;-1.20;99.90
27890;DHT22;15238;49.082;9.102;2023-02-28T04:59:53;-1.20;99.90
27890;DHT22;15238;49.082;9.102;2023-02-28T05:01:54;-1.20;99.90
27890;DHT22;15238;49.082;9.102;2023-02-28T05:03:56;-1.20;99.90
27890;DHT22;15238;49.082;9.102;2023-02-28T05:05:57;-1.20;99.90
27890;DHT22;15238;49.082;9.102;2023-02-28T05:07:58;-1.10;99.90
27890;DHT22;15238;49.082;9.102;2023-02-28T05:09:58;-1.20;99.90
27890;DHT22;15238;49.082;9.102;2023-02-28T05:11:59;-1.10;99.90
27890;DHT22;15238;49.082;9.102;2023-02-28T05:13:59;-1.10;99.90
27890;DHT22;15238;49.082;9.102;2023-02-28T05:16:00;-1.10;99.90
27890;DHT22;15238;49.082;9.102;2023-02-28T05:18:01;-1.10;99.90
27890;DHT22;15238;49.082;9.102;2023-02-28T05:20:01;-1.10;99.90
27890;DHT22;15238;49.082;9.102;2023-02-28T05:22:04;-1.10;99.90
27890;DHT22;15238;49.082;9.102;2023-02-28T05:24:09;-1.10;99.90
27890;DHT22;15238;49.082;9.102;2023-02-28T05:26:10;-1.10;99.90
27890;DHT22;15238;49.082;9.102;2023-02-28T05:28:10;-1.10;99.90
27890;DHT22;15238;49.082;9.102;2023-02-28T05:30:11;-1.10;99.90
27890;DHT22;15238;49.082;9.102;2023-02-28T05:32:12;-1.00;99.90
27890;DHT22;15238;49.082;9.102;2023-02-28T05:34:13;-1.00;99.90
27890;DHT22;15238;49.082;9.102;2023-02-28T05:36:15;-1.00;99.90
27890;DHT22;15238;49.082;9.102;2023-02-28T05:38:16;-1.00;99.90
27890;DHT22;15238;49.082;9.102;2023-02-28T05:40:18;-1.00;99.90
27890;DHT22;15238;49.082;9.102;2023-02-28T05:42:20;-1.00;99.90
27890;DHT22;15238;49.082;9.102;2023-02-28T05:44:20;-1.00;99.90
27890;DHT22;15238;49.082;9.102;2023-02-28T05:46:21;-0.90;99.90
27890;DHT22;15238;49.082;9.102;2023-02-28T05:48:21;-1.00;99.90
27890;DHT22;15238;49.082;9.102;2023-02-28T05:50:22;-1.00;99.90
27890;DHT22;15238;49.082;9.102;2023-02-28T05:52:22;-1.00;99.90
27890;DHT22;15238;49.082;9.102;2023-02-28T05:54:23;-1.00;99.90
27890;DHT22;15238;49.082;9.102;2023-02-28T05:56:24;-1.00;99.90
27890;DHT22;15238;49.082;9.102;2023-02-28T05:58:25;-1.00;99.90
27890;DHT22;15238;49.082;9.102;2023-02-28T06:00:29;-1.00;99.90
27890;DHT22;15238;49.082;9.102;2023-02-28T06:02:29;-1.00;99.90
27890;DHT22;15238;49.082;9.102;2023-02-28T06:04:30;-1.00;99.90
27890;DHT22;15238;49.082;9.102;2023-02-28T06:06:30;-1.00;99.90
27890;DHT22;15238;49.082;9.102;2023-02-28T06:08:31;-1.00;99.90
27890;DHT22;15238;49.082;9.102;2023-02-28T06:10:32;-0.90;99.90
27890;DHT22;15238;49.082;9.102;2023-02-28T06:12:32;-0.90;99.90
27890;DHT22;15238;49.082;9.102;2023-02-28T06:14:33;-1.00;99.90
27890;DHT22;15238;49.082;9.102;2023-02-28T06:16:34;-1.00;99.90
27890;DHT22;15238;49.082;9.102;2023-02-28T06:18:35;-1.00;99.90
27890;DHT22;15238;49.082;9.102;2023-02-28T06:20:36;-0.90;99.90
27890;DHT22;15238;49.082;9.102;2023-02-28T06:22:37;-0.90;99.90
27890;DHT22;15238;49.082;9.102;2023-02-28T06:24:37;-1.00;99.90
27890;DHT22;15238;49.082;9.102;2023-02-28T06:26:40;-1.00;99.90
27890;DHT22;15238;49.082;9.102;2023-02-28T06:28:41;-1.00;99.90
27890;DHT22;15238;49.082;9.102;2023-02-28T06:30:41;-1.00;99.90
27890;DHT22;15238;49.082;9.102;2023-02-28T06:32:42;-1.00;99.90
27890;DHT22;15238;49.082;9.102;2023-02-28T06:34:43;-1.00;99.90
27890;DHT22;15238;49.082;9.102;2023-02-28T06:36:43;-1.00;99.90
27890;DHT22;15238;49.082;9.102;2023-02-28T06:38:44;-1.00;99.90
27890;DHT22;15238;49.082;9.102;2023-02-28T06:40:53;-0.90;99.90
27890;DHT22;15238;49.082;9.102;2023-02-28T06:42:54;-1.00;99.90
27890;DHT22;15238;49.082;9.102;2023-02-28T06:44:55;-1.00;99.90
27890;DHT22;15238;49.082;9.102;2023-02-28T06:46:56;-1.00;99.90
27890;DHT22;15238;49.082;9.102;2023-02-28T06:48:56;-0.90;99.90
27890;DHT22;15238;49.082;9.102;2023-02-28T06:51:08;-1.00;99.90
27890;DHT22;15238;49.082;9.102;2023-02-28T06:53:09;-1.00;99.90
27890;DHT22;15238;49.082;9.102;2023-02-28T06:55:09;-1.00;99.90
27890;DHT22;15238;49.082;9.102;2023-02-28T06:57:10;-1.00;99.90
27890;DHT22;15238;49.082;9.102;2023-02-28T06:59:10;-1.00;99.90
27890;DHT22;15238;49.082;9.102;2023-02-28T07:01:13;-0.90;99.90
27890;DHT22;15238;49.082;9.102;2023-02-28T07:03:13;-0.90;99.90
27890;DHT22;15238;49.082;9.102;2023-02-28T07:05:15;-0.90;99.90
27890;DHT22;15238;49.082;9.102;2023-02-28T07:07:16;-0.90;99.90
27890;DHT22;15238;49.082;9.102;2023-02-28T07:09:16;-0.90;99.90
27890;DHT22;15238;49.082;9.102;2023-02-28T07:11:17;-0.90;99.90
27890;DHT22;15238;49.082;9.102;2023-02-28T07:13:17;-0.90;99.90
27890;DHT22;15238;49.082;9.102;2023-02-28T07:15:18;-0.90;99.90
27890;DHT22;15238;49.082;9.102;2023-02-28T07:17:18;-0.90;99.90
27890;DHT22;15238;49.082;9.102;2023-02-28T07:19:19;-0.80;99.90
27890;DHT22;15238;49.082;9.102;2023-02-28T07:21:20;-0.90;99.90
27890;DHT22;15238;49.082;9.102;2023-02-28T07:23:21;-0.90;99.90
27890;DHT22;15238;49.082;9.102;2023-02-28T07:25:24;-0.90;99.90
27890;DHT22;15238;49.082;9.102;2023-02-28T07:27:24;-0.80;99.90
27890;DHT22;15238;49.082;9.102;2023-02-28T07:29:25;-0.80;99.90
27890;DHT22;15238;49.082;9.102;2023-02-28T07:31:26;-0.70;99.90
27890;DHT22;15238;49.082;9.102;2023-02-28T07:33:26;-0.60;99.90
27890;DHT22;15238;49.082;9.102;2023-02-28T07:35:27;-0.50;99.90
27890;DHT22;15238;49.082;9.102;2023-02-28T07:37:30;-0.50;99.90
27890;DHT22;15238;49.082;9.102;2023-02-28T07:39:36;-0.40;99.90
27890;DHT22;15238;49.082;9.102;2023-02-28T07:41:38;-0.40;99.90
27890;DHT22;15238;49.082;9.102;2023-02-28T07:43:43;-0.30;99.90
27890;DHT22;15238;49.082;9.102;2023-02-28T07:45:47;-0.20;99.90
27890;DHT22;15238;49.082;9.102;2023-02-28T07:47:48;-0.10;99.90
27890;DHT22;15238;49.082;9.102;2023-02-28T07:49:48;-0.10;99.90
27890;DHT22;15238;49.082;9.102;2023-02-28T07:51:49;-0.10;99.90
27890;DHT22;15238;49.082;9.102;2023-02-28T07:53:50;-0.10;99.90
27890;DHT22;15238;49.082;9.102;2023-02-28T07:55:54;0.00;99.90
27890;DHT22;15238;49.082;9.102;2023-02-28T07:57:54;0.00;99.90
27890;DHT22;15238;49.082;9.102;2023-02-28T07:59:56;0.10;99.90
27890;DHT22;15238;49.082;9.102;2023-02-28T08:01:58;0.10;99.90
27890;DHT22;15238;49.082;9.102;2023-02-28T08:03:59;0.10;99.90
27890;DHT22;15238;49.082;9.102;2023-02-28T08:06:01;0.10;99.90
27890;DHT22;15238;49.082;9.102;2023-02-28T08:08:02;0.20;99.90
27890;DHT22;15238;49.082;9.102;2023-02-28T08:10:03;0.30;99.90
27890;DHT22;15238;49.082;9.102;2023-02-28T08:12:07;0.30;99.90
27890;DHT22;15238;49.082;9.102;2023-02-28T08:14:07;0.30;99.90
27890;DHT22;15238;49.082;9.102;2023-02-28T08:16:08;0.30;99.90
27890;DHT22;15238;49.082;9.102;2023-02-28T08:18:09;0.30;99.90
27890;DHT22;15238;49.082;9.102;2023-02-28T08:20:10;0.30;99.90
27890;DHT22;15238;49.082;9.102;2023-02-28T08:22:11;0.30;99.90
27890;DHT22;15238;49.082;9.102;2023-02-28T08:24:11;0.30;99.90
27890;DHT22;15238;49.082;9.102;2023-02-28T08:26:12;0.40;99.90
27890;DHT22;15238;49.082;9.102;2023-02-28T08:28:12;0.40;99.90
27890;DHT22;15238;49.082;9.102;2023-02-28T08:30:14;0.50;99.90
27890;DHT22;15238;49.082;9.102;2023-02-28T08:32:15;0.60;99.90
27890;DHT22;15238;49.082;9.102;2023-02-28T08:34:16;0.60;99.90
27890;DHT22;15238;49.082;9.102;2023-02-28T08:36:17;0.60;99.90
27890;DHT22;15238;49.082;9.102;2023-02-28T08:38:17;0.80;99.90
27890;DHT22;15238;49.082;9.102;2023-02-28T08:40:18;0.90;99.90
27890;DHT22;15238;49.082;9.102;2023-02-28T08:42:19;0.90;99.90
27890;DHT22;15238;49.082;9.102;2023-02-28T08:44:19;1.00;99.90
27890;DHT22;15238;49.082;9.102;2023-02-28T08:46:20;1.10;99.90
27890;DHT22;15238;49.082;9.102;2023-02-28T08:48:21;1.20;99.90
27890;DHT22;15238;49.082;9.102;2023-02-28T08:50:22;1.30;99.90
27890;DHT22;15238;49.082;9.102;2023-02-28T08:52:22;1.40;99.90
27890;DHT22;15238;49.082;9.102;2023-02-28T08:54:24;1.40;99.90
27890;DHT22;15238;49.082;9.102;2023-02-28T08:56:24;1.40;99.90
27890;DHT22;15238;49.082;9.102;2023-02-28T08:58:25;1.50;99.90
27890;DHT22;15238;49.082;9.102;2023-02-28T09:00:26;1.40;99.90
27890;DHT22;15238;49.082;9.102;2023-02-28T09:02:26;1.40;99.90
27890;DHT22;15238;49.082;9.102;2023-02-28T09:04:29;1.40;99.90
27890;DHT22;15238;49.082;9.102;2023-02-28T09:06:31;1.40;99.90
27890;DHT22;15238;49.082;9.102;2023-02-28T09:08:32;1.50;99.90
27890;DHT22;15238;49.082;9.102;2023-02-28T09:10:34;1.50;99.90
27890;DHT22;15238;49.082;9.102;2023-02-28T09:12:35;1.50;99.90
27890;DHT22;15238;49.082;9.102;2023-02-28T09:14:35;1.60;99.90
27890;DHT22;15238;49.082;9.102;2023-02-28T09:16:36;1.70;99.90
27890;DHT22;15238;49.082;9.102;2023-02-28T09:18:38;1.80;99.90
27890;DHT22;15238;49.082;9.102;2023-02-28T09:20:39;1.80;99.90
27890;DHT22;15238;49.082;9.102;2023-02-28T09:22:40;1.80;99.90
27890;DHT22;15238;49.082;9.102;2023-02-28T09:24:41;1.80;99.90
27890;DHT22;15238;49.082;9.102;2023-02-28T09:26:41;1.90;99.90
27890;DHT22;15238;49.082;9.102;2023-02-28T09:28:42;2.00;99.90
27890;DHT22;15238;49.082;9.102;2023-02-28T09:30:47;2.00;99.90
27890;DHT22;15238;49.082;9.102;2023-02-28T09:32:48;2.10;99.90
27890;DHT22;15238;49.082;9.102;2023-02-28T09:34:52;2.20;99.90
27890;DHT22;15238;49.082;9.102;2023-02-28T09:36:52;2.20;99.90
27890;DHT22;15238;49.082;9.102;2023-02-28T09:38:55;2.40;99.90
27890;DHT22;15238;49.082;9.102;2023-02-28T09:40:56;2.30;99.90
27890;DHT22;15238;49.082;9.102;2023-02-28T09:42:59;2.30;99.90
27890;DHT22;15238;49.082;9.102;2023-02-28T09:45:11;2.40;99.90
27890;DHT22;15238;49.082;9.102;2023-02-28T09:47:38;2.40;99.90
27890;DHT22;15238;49.082;9.102;2023-02-28T09:49:45;2.30;99.90
27890;DHT22;15238;49.082;9.102;2023-02-28T09:51:58;2.30;99.90
27890;DHT22;15238;49.082;9.102;2023-02-28T09:54:00;2.30;99.90
27890;DHT22;15238;49.082;9.102;2023-02-28T09:56:08;2.40;99.90
27890;DHT22;15238;49.082;9.102;2023-02-28T09:58:20;2.30;99.90
27890;DHT22;15238;49.082;9.102;2023-02-28T10:00:42;2.20;99.90
27890;DHT22;15238;49.082;9.102;2023-02-28T10:03:24;2.10;99.90
27890;DHT22;15238;49.082;9.102;2023-02-28T10:05:30;2.10;99.90
27890;DHT22;15238;49.082;9.102;2023-02-28T10:09:46;1.90;99.90
27890;DHT22;15238;49.082;9.102;2023-02-28T10:11:48;1.80;99.90
27890;DHT22;15238;49.082;9.102;2023-02-28T10:13:59;1.90;99.90
27890;DHT22;15238;49.082;9.102;2023-02-28T10:16:14;1.90;99.90
27890;DHT22;15238;49.082;9.102;2023-02-28T10:18:22;2.00;99.90
27890;DHT22;15238;49.082;9.102;2023-02-28T10:20:25;2.00;99.90
27890;DHT22;15238;49.082;9.102;2023-02-28T10:22:41;2.10;99.90
27890;DHT22;15238;49.082;9.102;2023-02-28T10:24:53;2.10;99.90
27890;DHT22;15238;49.082;9.102;2023-02-28T10:27:00;2.10;99.90
27890;DHT22;15238;49.082;9.102;2023-02-28T10:29:01;2.10;99.90
27890;DHT22;15238;49.082;9.102;2023-02-28T10:31:03;2.20;99.90
27890;DHT22;15238;49.082;9.102;2023-02-28T10:33:03;2.20;99.90
27890;DHT22;15238;49.082;9.102;2023-02-28T10:35:23;2.20;99.90
27890;DHT22;15238;49.082;9.102;2023-02-28T10:37:24;2.20;99.90
27890;DHT22;15238;49.082;9.102;2023-02-28T10:39:42;2.20;99.90
27890;DHT22;15238;49.082;9.102;2023-02-28T10:41:43;2.20;99.90
27890;DHT22;15238;49.082;9.102;2023-02-28T10:43:44;2.10;99.90
27890;DHT22;15238;49.082;9.102;2023-02-28T10:46:04;2.20;99.90
27890;DHT22;15238;49.082;9.102;2023-02-28T10:52:47;2.40;99.90
27890;DHT22;15238;49.082;9.102;2023-02-28T10:54:47;2.50;99.90
27890;DHT22;15238;49.082;9.102;2023-02-28T10:59:30;2.60;99.90
27890;DHT22;15238;49.082;9.102;2023-02-28T11:01:42;2.60;99.90
27890;DHT22;15238;49.082;9.102;2023-02-28T11:03:44;2.60;99.90
27890;DHT22;15238;49.082;9.102;2023-02-28T11:05:45;2.60;99.90
27890;DHT22;15238;49.082;9.102;2023-02-28T11:07:54;2.60;99.90
27890;DHT22;15238;49.082;9.102;2023-02-28T11:09:58;2.60;99.90
27890;DHT22;15238;49.082;9.102;2023-02-28T11:12:00;2.80;99.90
27890;DHT22;15238;49.082;9.102;2023-02-28T11:14:05;2.90;99.90
27890;DHT22;15238;49.082;9.102;2023-02-28T11:16:09;2.90;99.90
27890;DHT22;15238;49.082;9.102;2023-02-28T11:20:30;2.90;99.90
27890;DHT22;15238;49.082;9.102;2023-02-28T11:22:34;2.90;99.90
27890;DHT22;15238;49.082;9.102;2023-02-28T11:24:44;3.00;99.90
27890;DHT22;15238;49.082;9.102;2023-02-28T11:26:47;3.10;99.90
27890;DHT22;15238;49.082;9.102;2023-02-28T11:29:25;3.20;99.90
27890;DHT22;15238;49.082;9.102;2023-02-28T11:31:23;3.10;99.90
27890;DHT22;15238;49.082;9.102;2023-02-28T11:33:28;3.10;99.90
27890;DHT22;15238;49.082;9.102;2023-02-28T11:35:38;3.30;99.90
27890;DHT22;15238;49.082;9.102;2023-02-28T11:37:39;3.50;99.90
27890;DHT22;15238;49.082;9.102;2023-02-28T11:39:40;3.70;99.90
27890;DHT22;15238;49.082;9.102;2023-02-28T11:44:05;3.70;99.90
27890;DHT22;15238;49.082;9.102;2023-02-28T11:51:17;3.70;99.90
27890;DHT22;15238;49.082;9.102;2023-02-28T12:03:04;3.50;99.90
27890;DHT22;15238;49.082;9.102;2023-02-28T12:05:53;3.60;99.90
27890;DHT22;15238;49.082;9.102;2023-02-28T12:10:12;3.60;99.90
27890;DHT22;15238;49.082;9.102;2023-02-28T12:15:22;3.80;99.90
27890;DHT22;15238;49.082;9.102;2023-02-28T12:19:54;4.20;99.90
27890;DHT22;15238;49.082;9.102;2023-02-28T12:27:02;4.30;99.70
27890;DHT22;15238;49.082;9.102;2023-02-28T12:29:30;4.40;99.70
27890;DHT22;15238;49.082;9.102;2023-02-28T12:31:38;4.40;99.10
27890;DHT22;15238;49.082;9.102;2023-02-28T12:33:51;4.40;99.00
27890;DHT22;15238;49.082;9.102;2023-02-28T12:35:58;4.30;99.60
27890;DHT22;15238;49.082;9.102;2023-02-28T12:38:05;4.30;99.60
27890;DHT22;15238;49.082;9.102;2023-02-28T12:40:13;4.50;99.70
27890;DHT22;15238;49.082;9.102;2023-02-28T12:44:46;4.90;98.40
27890;DHT22;15238;49.082;9.102;2023-02-28T12:46:51;4.70;98.70
27890;DHT22;15238;49.082;9.102;2023-02-28T12:48:56;4.70;98.80
27890;DHT22;15238;49.082;9.102;2023-02-28T12:50:57;4.60;99.20
27890;DHT22;15238;49.082;9.102;2023-02-28T12:53:24;4.70;99.10
27890;DHT22;15238;49.082;9.102;2023-02-28T12:55:43;4.80;99.20
27890;DHT22;15238;49.082;9.102;2023-02-28T12:57:53;5.00;98.90
27890;DHT22;15238;49.082;9.102;2023-02-28T13:00:03;5.00;98.20
27890;DHT22;15238;49.082;9.102;2023-02-28T13:09:33;5.10;97.40
27890;DHT22;15238;49.082;9.102;2023-02-28T13:11:43;4.90;97.40
27890;DHT22;15238;49.082;9.102;2023-02-28T13:13:45;4.90;97.40
27890;DHT22;15238;49.082;9.102;2023-02-28T13:16:00;5.00;98.20
27890;DHT22;15238;49.082;9.102;2023-02-28T13:18:01;5.00;98.50
27890;DHT22;15238;49.082;9.102;2023-02-28T13:20:02;5.10;98.90
27890;DHT22;15238;49.082;9.102;2023-02-28T13:22:04;5.20;97.80
27890;DHT22;15238;49.082;9.102;2023-02-28T13:24:05;5.20;97.40
27890;DHT22;15238;49.082;9.102;2023-02-28T13:26:06;5.20;98.00
27890;DHT22;15238;49.082;9.102;2023-02-28T13:28:13;5.20;98.00
27890;DHT22;15238;49.082;9.102;2023-02-28T13:35:37;4.80;98.20
27890;DHT22;15238;49.082;9.102;2023-02-28T13:37:44;4.80;99.40
27890;DHT22;15238;49.082;9.102;2023-02-28T13:39:50;4.80;99.20
27890;DHT22;15238;49.082;9.102;2023-02-28T13:41:51;4.70;98.50
27890;DHT22;15238;49.082;9.102;2023-02-28T13:46:12;4.90;99.00
27890;DHT22;15238;49.082;9.102;2023-02-28T13:48:20;4.80;99.10
27890;DHT22;15238;49.082;9.102;2023-02-28T13:50:27;4.80;98.80
27890;DHT22;15238;49.082;9.102;2023-02-28T13:52:29;4.70;98.60
27890;DHT22;15238;49.082;9.102;2023-02-28T13:54:32;4.70;99.20
27890;DHT22;15238;49.082;9.102;2023-02-28T13:57:04;4.70;98.60
27890;DHT22;15238;49.082;9.102;2023-02-28T14:01:53;4.70;98.30
27890;DHT22;15238;49.082;9.102;2023-02-28T14:06:36;4.70;98.70
27890;DHT22;15238;49.082;9.102;2023-02-28T14:11:27;4.80;99.30
27890;DHT22;15238;49.082;9.102;2023-02-28T14:13:45;4.90;98.40
27890;DHT22;15238;49.082;9.102;2023-02-28T14:16:06;4.80;98.40
27890;DHT22;15238;49.082;9.102;2023-02-28T14:18:29;4.80;98.80
27890;DHT22;15238;49.082;9.102;2023-02-28T14:20:33;4.80;98.20
27890;DHT22;15238;49.082;9.102;2023-02-28T14:25:20;4.90;98.60
27890;DHT22;15238;49.082;9.102;2023-02-28T14:27:37;4.90;98.50
27890;DHT22;15238;49.082;9.102;2023-02-28T14:31:58;4.90;98.80
27890;DHT22;15238;49.082;9.102;2023-02-28T14:36:24;5.00;98.90
27890;DHT22;15238;49.082;9.102;2023-02-28T14:41:02;5.00;98.50
27890;DHT22;15238;49.082;9.102;2023-02-28T14:43:05;5.00;98.80
27890;DHT22;15238;49.082;9.102;2023-02-28T14:45:17;5.00;98.50
27890;DHT22;15238;49.082;9.102;2023-02-28T14:47:17;5.00;98.80
27890;DHT22;15238;49.082;9.102;2023-02-28T14:49:26;5.10;98.50
27890;DHT22;15238;49.082;9.102;2023-02-28T14:51:27;5.00;98.00
27890;DHT22;15238;49.082;9.102;2023-02-28T14:53:35;5.00;98.80